sensor_id;sensor_type;location;lat;lon;timestamp;pressure;altitude;pressure_sealevel;temperature;humidity
69405;BME280;57084;52.046;5.632;2022-09-09T00:00:00;100680;;;19.0;65.1
69405;BME280;57084;52.046;5.632;2022-09-09T00:01:01;100680;;;19.0;65.1
69405;BME280;57084;52.046;5.632;2022-09-09T00:02:01;100680;;;19.0;64.9
69405;BME280;57084;52.046;5.632;2022-09-09T00:03:01;100680;;;19.0;64.9
69405;BME280;57084;52.046;5.632;2022-09-09T00:04:02;100680;;;19.0;65.1
69405;BME280;57084;52.046;5.632;2022-09-09T00:05:04;100680;;;19.0;65.1
69405;BME280;57084;52.046;5.632;2022-09-09T00:06:02;100680;;;19.0;65.0
69405;BME280;57084;52.046;5.632;2022-09-09T00:07:01;100680;;;19.0;65.0
69405;BME280;57084;52.046;5.632;2022-09-09T00:08:00;100680;;;18.9;65.3
69405;BME280;57084;52.046;5.632;2022-09-09T00:09:01;100680;;;18.9;65.3
69405;BME280;57084;52.046;5.632;2022-09-09T00:10:03;100680;;;19.0;65.1
69405;BME280;57084;52.046;5.632;2022-09-09T00:11:00;100680;;;19.0;65.1
69405;BME280;57084;52.046;5.632;2022-09-09T00:12:01;100690;;;19.0;65.0
69405;BME280;57084;52.046;5.632;2022-09-09T00:13:02;100690;;;19.0;65.0
69405;BME280;57084;52.046;5.632;2022-09-09T00:14:00;100680;;;18.9;65.2
69405;BME280;57084;52.046;5.632;2022-09-09T00:15:01;100680;;;18.9;65.2
69405;BME280;57084;52.046;5.632;2022-09-09T00:16:00;100680;;;18.9;65.1
69405;BME280;57084;52.046;5.632;2022-09-09T00:17:01;100680;;;18.9;65.1
69405;BME280;57084;52.046;5.632;2022-09-09T00:18:01;100680;;;18.9;65.3
69405;BME280;57084;52.046;5.632;2022-09-09T00:19:00;100680;;;18.9;65.3
69405;BME280;57084;52.046;5.632;2022-09-09T00:20:01;100680;;;18.9;65.2
69405;BME280;57084;52.046;5.632;2022-09-09T00:21:01;100680;;;18.9;65.2
69405;BME280;57084;52.046;5.632;2022-09-09T00:22:04;100680;;;18.9;65.1
69405;BME280;57084;52.046;5.632;2022-09-09T00:23:00;100680;;;18.9;65.1
69405;BME280;57084;52.046;5.632;2022-09-09T00:24:00;100680;;;18.9;65.4
69405;BME280;57084;52.046;5.632;2022-09-09T00:25:02;100680;;;18.9;65.4
69405;BME280;57084;52.046;5.632;2022-09-09T00:26:02;100680;;;18.9;65.2
69405;BME280;57084;52.046;5.632;2022-09-09T00:27:01;100680;;;18.9;65.2
69405;BME280;57084;52.046;5.632;2022-09-09T00:28:00;100680;;;18.9;65.5
69405;BME280;57084;52.046;5.632;2022-09-09T00:29:00;100680;;;18.9;65.5
69405;BME280;57084;52.046;5.632;2022-09-09T00:30:01;100680;;;18.9;65.4
69405;BME280;57084;52.046;5.632;2022-09-09T00:31:04;100680;;;18.9;65.4
69405;BME280;57084;52.046;5.632;2022-09-09T00:32:00;100680;;;18.8;65.3
69405;BME280;57084;52.046;5.632;2022-09-09T00:33:00;100680;;;18.8;65.3
69405;BME280;57084;52.046;5.632;2022-09-09T00:34:09;100670;;;18.8;65.5
69405;BME280;57084;52.046;5.632;2022-09-09T00:35:01;100670;;;18.8;65.5
69405;BME280;57084;52.046;5.632;2022-09-09T00:36:00;100670;;;18.8;65.4
69405;BME280;57084;52.046;5.632;2022-09-09T00:37:00;100670;;;18.8;65.4
69405;BME280;57084;52.046;5.632;2022-09-09T00:38:00;100670;;;18.8;65.6
69405;BME280;57084;52.046;5.632;2022-09-09T00:39:00;100670;;;18.8;65.6
69405;BME280;57084;52.046;5.632;2022-09-09T00:40:01;100670;;;18.8;65.5
69405;BME280;57084;52.046;5.632;2022-09-09T00:41:01;100670;;;18.8;65.5
69405;BME280;57084;52.046;5.632;2022-09-09T00:42:03;100670;;;18.8;65.4
69405;BME280;57084;52.046;5.632;2022-09-09T00:43:05;100670;;;18.8;65.4
69405;BME280;57084;52.046;5.632;2022-09-09T00:44:00;100670;;;18.8;65.6
69405;BME280;57084;52.046;5.632;2022-09-09T00:45:01;100670;;;18.8;65.6
69405;BME280;57084;52.046;5.632;2022-09-09T00:46:05;100670;;;18.8;65.5
69405;BME280;57084;52.046;5.632;2022-09-09T00:47:04;100670;;;18.8;65.5
69405;BME280;57084;52.046;5.632;2022-09-09T00:48:00;100660;;;18.7;65.7
69405;BME280;57084;52.046;5.632;2022-09-09T00:49:03;100660;;;18.7;65.7
69405;BME280;57084;52.046;5.632;2022-09-09T00:50:00;100670;;;18.8;65.6
69405;BME280;57084;52.046;5.632;2022-09-09T00:51:00;100670;;;18.8;65.6
69405;BME280;57084;52.046;5.632;2022-09-09T00:52:02;100660;;;18.7;65.5
69405;BME280;57084;52.046;5.632;2022-09-09T00:53:02;100660;;;18.7;65.5
69405;BME280;57084;52.046;5.632;2022-09-09T00:54:06;100660;;;18.7;65.8
69405;BME280;57084;52.046;5.632;2022-09-09T00:55:03;100660;;;18.7;65.8
69405;BME280;57084;52.046;5.632;2022-09-09T00:56:02;100660;;;18.7;65.7
69405;BME280;57084;52.046;5.632;2022-09-09T00:57:03;100660;;;18.7;65.7
69405;BME280;57084;52.046;5.632;2022-09-09T00:58:00;100660;;;18.7;65.8
69405;BME280;57084;52.046;5.632;2022-09-09T00:59:01;100660;;;18.7;65.8
69405;BME280;57084;52.046;5.632;2022-09-09T01:00:16;100650;;;18.7;65.7
69405;BME280;57084;52.046;5.632;2022-09-09T01:01:02;100650;;;18.7;65.7
69405;BME280;57084;52.046;5.632;2022-09-09T01:02:00;100650;;;18.7;65.6
69405;BME280;57084;52.046;5.632;2022-09-09T01:03:05;100650;;;18.7;65.6
69405;BME280;57084;52.046;5.632;2022-09-09T01:04:00;100660;;;18.6;65.8
69405;BME280;57084;52.046;5.632;2022-09-09T01:05:02;100660;;;18.6;65.8
69405;BME280;57084;52.046;5.632;2022-09-09T01:06:01;100660;;;18.6;65.7
69405;BME280;57084;52.046;5.632;2022-09-09T01:07:01;100660;;;18.6;65.7
69405;BME280;57084;52.046;5.632;2022-09-09T01:08:00;100660;;;18.6;65.8
69405;BME280;57084;52.046;5.632;2022-09-09T01:09:04;100660;;;18.6;65.8
69405;BME280;57084;52.046;5.632;2022-09-09T01:10:00;100660;;;18.6;65.8
69405;BME280;57084;52.046;5.632;2022-09-09T01:11:00;100660;;;18.6;65.8
69405;BME280;57084;52.046;5.632;2022-09-09T01:12:01;100660;;;18.6;65.7
69405;BME280;57084;52.046;5.632;2022-09-09T01:13:00;100660;;;18.6;65.7
69405;BME280;57084;52.046;5.632;2022-09-09T01:14:01;100660;;;18.6;65.9
69405;BME280;57084;52.046;5.632;2022-09-09T01:15:03;100660;;;18.6;65.9
69405;BME280;57084;52.046;5.632;2022-09-09T01:16:00;100660;;;18.6;65.8
69405;BME280;57084;52.046;5.632;2022-09-09T01:17:01;100660;;;18.6;65.8
69405;BME280;57084;52.046;5.632;2022-09-09T01:18:01;100670;;;18.6;65.8
69405;BME280;57084;52.046;5.632;2022-09-09T01:19:00;100670;;;18.6;65.8
69405;BME280;57084;52.046;5.632;2022-09-09T01:20:04;100660;;;18.5;65.8
69405;BME280;57084;52.046;5.632;2022-09-09T01:21:02;100660;;;18.5;65.8
69405;BME280;57084;52.046;5.632;2022-09-09T01:22:01;100660;;;18.5;65.8
69405;BME280;57084;52.046;5.632;2022-09-09T01:24:04;100660;;;18.5;66.0
69405;BME280;57084;52.046;5.632;2022-09-09T01:27:00;100660;;;18.5;65.9
69405;BME280;57084;52.046;5.632;2022-09-09T01:28:00;100660;;;18.5;65.8
69405;BME280;57084;52.046;5.632;2022-09-09T01:29:00;100660;;;18.5;65.8
69405;BME280;57084;52.046;5.632;2022-09-09T01:30:00;100660;;;18.5;66.0
69405;BME280;57084;52.046;5.632;2022-09-09T01:31:00;100660;;;18.5;66.0
69405;BME280;57084;52.046;5.632;2022-09-09T01:32:00;100660;;;18.5;65.9
69405;BME280;57084;52.046;5.632;2022-09-09T01:33:00;100660;;;18.5;65.9
69405;BME280;57084;52.046;5.632;2022-09-09T01:34:01;100660;;;18.4;66.0
69405;BME280;57084;52.046;5.632;2022-09-09T01:35:00;100660;;;18.4;66.0
69405;BME280;57084;52.046;5.632;2022-09-09T01:36:00;100660;;;18.4;65.9
69405;BME280;57084;52.046;5.632;2022-09-09T01:37:01;100660;;;18.4;65.9
69405;BME280;57084;52.046;5.632;2022-09-09T01:38:00;100660;;;18.4;65.8
69405;BME280;57084;52.046;5.632;2022-09-09T01:39:00;100660;;;18.4;65.8
69405;BME280;57084;52.046;5.632;2022-09-09T01:40:00;100650;;;18.4;66.0
69405;BME280;57084;52.046;5.632;2022-09-09T01:41:00;100650;;;18.4;66.0
69405;BME280;57084;52.046;5.632;2022-09-09T01:42:00;100650;;;18.4;65.9
69405;BME280;57084;52.046;5.632;2022-09-09T01:43:00;100650;;;18.4;65.9
69405;BME280;57084;52.046;5.632;2022-09-09T01:44:00;100650;;;18.4;66.0
69405;BME280;57084;52.046;5.632;2022-09-09T01:45:00;100650;;;18.4;66.0
69405;BME280;57084;52.046;5.632;2022-09-09T01:46:00;100650;;;18.4;65.9
69405;BME280;57084;52.046;5.632;2022-09-09T01:47:00;100650;;;18.4;65.9
69405;BME280;57084;52.046;5.632;2022-09-09T01:48:00;100660;;;18.4;65.8
69405;BME280;57084;52.046;5.632;2022-09-09T01:49:00;100660;;;18.4;65.8
69405;BME280;57084;52.046;5.632;2022-09-09T01:50:00;100650;;;18.3;66.0
69405;BME280;57084;52.046;5.632;2022-09-09T01:51:00;100650;;;18.3;66.0
69405;BME280;57084;52.046;5.632;2022-09-09T01:52:00;100650;;;18.3;65.9
69405;BME280;57084;52.046;5.632;2022-09-09T01:53:00;100650;;;18.3;65.9
69405;BME280;57084;52.046;5.632;2022-09-09T01:54:00;100650;;;18.3;66.1
69405;BME280;57084;52.046;5.632;2022-09-09T01:55:00;100650;;;18.3;66.1
69405;BME280;57084;52.046;5.632;2022-09-09T01:56:02;100650;;;18.3;65.9
69405;BME280;57084;52.046;5.632;2022-09-09T01:57:01;100650;;;18.3;65.9
69405;BME280;57084;52.046;5.632;2022-09-09T01:58:04;100650;;;18.3;65.8
69405;BME280;57084;52.046;5.632;2022-09-09T01:59:03;100650;;;18.3;65.8
69405;BME280;57084;52.046;5.632;2022-09-09T02:00:01;100650;;;18.3;66.0
69405;BME280;57084;52.046;5.632;2022-09-09T02:01:02;100650;;;18.3;66.0
69405;BME280;57084;52.046;5.632;2022-09-09T02:02:03;100650;;;18.3;65.9
69405;BME280;57084;52.046;5.632;2022-09-09T02:03:00;100650;;;18.3;65.9
69405;BME280;57084;52.046;5.632;2022-09-09T02:04:00;100650;;;18.3;66.0
69405;BME280;57084;52.046;5.632;2022-09-09T02:05:02;100650;;;18.3;66.0
69405;BME280;57084;52.046;5.632;2022-09-09T02:06:00;100650;;;18.3;65.9
69405;BME280;57084;52.046;5.632;2022-09-09T02:07:00;100650;;;18.3;65.9
69405;BME280;57084;52.046;5.632;2022-09-09T02:08:00;100650;;;18.3;65.8
69405;BME280;57084;52.046;5.632;2022-09-09T02:09:00;100650;;;18.3;65.8
69405;BME280;57084;52.046;5.632;2022-09-09T02:10:01;100640;;;18.2;66.0
69405;BME280;57084;52.046;5.632;2022-09-09T02:11:01;100640;;;18.2;66.0
69405;BME280;57084;52.046;5.632;2022-09-09T02:12:00;100640;;;18.2;65.9
69405;BME280;57084;52.046;5.632;2022-09-09T02:13:00;100640;;;18.2;65.9
69405;BME280;57084;52.046;5.632;2022-09-09T02:14:00;100640;;;18.2;66.1
69405;BME280;57084;52.046;5.632;2022-09-09T02:15:02;100640;;;18.2;66.1
69405;BME280;57084;52.046;5.632;2022-09-09T02:16:00;100640;;;18.2;66.0
69405;BME280;57084;52.046;5.632;2022-09-09T02:17:01;100640;;;18.2;66.0
69405;BME280;57084;52.046;5.632;2022-09-09T02:18:00;100640;;;18.2;65.9
69405;BME280;57084;52.046;5.632;2022-09-09T02:19:01;100640;;;18.2;65.9
69405;BME280;57084;52.046;5.632;2022-09-09T02:20:02;100640;;;18.2;66.0
69405;BME280;57084;52.046;5.632;2022-09-09T02:21:00;100640;;;18.2;66.0
69405;BME280;57084;52.046;5.632;2022-09-09T02:22:00;100630;;;18.2;65.9
69405;BME280;57084;52.046;5.632;2022-09-09T02:23:00;100630;;;18.2;65.9
69405;BME280;57084;52.046;5.632;2022-09-09T02:24:01;100640;;;18.1;66.1
69405;BME280;57084;52.046;5.632;2022-09-09T02:25:00;100640;;;18.1;66.1
69405;BME280;57084;52.046;5.632;2022-09-09T02:26:00;100630;;;18.1;66.0
69405;BME280;57084;52.046;5.632;2022-09-09T02:27:00;100630;;;18.1;66.0
69405;BME280;57084;52.046;5.632;2022-09-09T02:28:00;100630;;;18.1;65.9
69405;BME280;57084;52.046;5.632;2022-09-09T02:29:01;100630;;;18.1;65.9
69405;BME280;57084;52.046;5.632;2022-09-09T02:30:00;100630;;;18.1;66.0
69405;BME280;57084;52.046;5.632;2022-09-09T02:31:00;100630;;;18.1;66.0
69405;BME280;57084;52.046;5.632;2022-09-09T02:32:01;100630;;;18.1;65.9
69405;BME280;57084;52.046;5.632;2022-09-09T02:33:00;100630;;;18.1;65.9
69405;BME280;57084;52.046;5.632;2022-09-09T02:34:00;100630;;;18.1;66.1
69405;BME280;57084;52.046;5.632;2022-09-09T02:35:01;100630;;;18.1;66.1
69405;BME280;57084;52.046;5.632;2022-09-09T02:36:00;100620;;;18.1;66.0
69405;BME280;57084;52.046;5.632;2022-09-09T02:37:00;100620;;;18.1;66.0
69405;BME280;57084;52.046;5.632;2022-09-09T02:38:01;100620;;;18.1;65.9
69405;BME280;57084;52.046;5.632;2022-09-09T02:39:00;100620;;;18.1;65.9
69405;BME280;57084;52.046;5.632;2022-09-09T02:40:00;100630;;;18.1;66.1
69405;BME280;57084;52.046;5.632;2022-09-09T02:41:00;100630;;;18.1;66.1
69405;BME280;57084;52.046;5.632;2022-09-09T02:42:00;100620;;;18.1;65.9
69405;BME280;57084;52.046;5.632;2022-09-09T02:43:00;100620;;;18.1;65.9
69405;BME280;57084;52.046;5.632;2022-09-09T02:44:00;100630;;;18.0;66.1
69405;BME280;57084;52.046;5.632;2022-09-09T02:45:00;100630;;;18.0;66.1
69405;BME280;57084;52.046;5.632;2022-09-09T02:46:02;100630;;;18.1;66.0
69405;BME280;57084;52.046;5.632;2022-09-09T02:47:04;100630;;;18.1;66.0
69405;BME280;57084;52.046;5.632;2022-09-09T02:48:02;100630;;;18.0;65.9
69405;BME280;57084;52.046;5.632;2022-09-09T02:49:00;100630;;;18.0;65.9
69405;BME280;57084;52.046;5.632;2022-09-09T02:50:03;100620;;;18.0;66.1
69405;BME280;57084;52.046;5.632;2022-09-09T02:51:01;100620;;;18.0;66.1
69405;BME280;57084;52.046;5.632;2022-09-09T02:52:00;100620;;;18.0;66.0
69405;BME280;57084;52.046;5.632;2022-09-09T02:53:02;100620;;;18.0;66.0
69405;BME280;57084;52.046;5.632;2022-09-09T02:54:01;100620;;;18.0;66.1
69405;BME280;57084;52.046;5.632;2022-09-09T02:55:02;100620;;;18.0;66.1
69405;BME280;57084;52.046;5.632;2022-09-09T02:56:01;100620;;;18.0;66.0
69405;BME280;57084;52.046;5.632;2022-09-09T02:57:01;100620;;;18.0;66.0
69405;BME280;57084;52.046;5.632;2022-09-09T02:58:00;100620;;;18.0;66.0
69405;BME280;57084;52.046;5.632;2022-09-09T02:59:02;100620;;;18.0;66.0
69405;BME280;57084;52.046;5.632;2022-09-09T03:00:00;100620;;;18.0;66.1
69405;BME280;57084;52.046;5.632;2022-09-09T03:01:00;100620;;;18.0;66.1
69405;BME280;57084;52.046;5.632;2022-09-09T03:02:00;100620;;;18.0;66.0
69405;BME280;57084;52.046;5.632;2022-09-09T03:03:00;100620;;;18.0;66.0
69405;BME280;57084;52.046;5.632;2022-09-09T03:04:00;100620;;;17.9;66.2
69405;BME280;57084;52.046;5.632;2022-09-09T03:05:00;100620;;;17.9;66.2
69405;BME280;57084;52.046;5.632;2022-09-09T03:06:00;100620;;;17.9;66.1
69405;BME280;57084;52.046;5.632;2022-09-09T03:07:00;100620;;;17.9;66.1
69405;BME280;57084;52.046;5.632;2022-09-09T03:08:00;100620;;;18.0;66.0
69405;BME280;57084;52.046;5.632;2022-09-09T03:09:00;100620;;;18.0;66.0
69405;BME280;57084;52.046;5.632;2022-09-09T03:10:00;100630;;;17.9;66.1
69405;BME280;57084;52.046;5.632;2022-09-09T03:11:00;100630;;;17.9;66.1
69405;BME280;57084;52.046;5.632;2022-09-09T03:12:00;100620;;;17.9;66.0
69405;BME280;57084;52.046;5.632;2022-09-09T03:13:00;100620;;;17.9;66.0
69405;BME280;57084;52.046;5.632;2022-09-09T03:14:00;100620;;;17.9;66.1
69405;BME280;57084;52.046;5.632;2022-09-09T03:15:00;100620;;;17.9;66.1
69405;BME280;57084;52.046;5.632;2022-09-09T03:16:00;100620;;;17.9;66.1
69405;BME280;57084;52.046;5.632;2022-09-09T03:17:00;100620;;;17.9;66.1
69405;BME280;57084;52.046;5.632;2022-09-09T03:18:00;100630;;;17.9;66.0
69405;BME280;57084;52.046;5.632;2022-09-09T03:19:00;100630;;;17.9;66.0
69405;BME280;57084;52.046;5.632;2022-09-09T03:20:00;100620;;;17.9;66.2
69405;BME280;57084;52.046;5.632;2022-09-09T03:21:00;100620;;;17.9;66.2
69405;BME280;57084;52.046;5.632;2022-09-09T03:22:00;100620;;;17.9;66.1
69405;BME280;57084;52.046;5.632;2022-09-09T03:23:00;100620;;;17.9;66.1
69405;BME280;57084;52.046;5.632;2022-09-09T03:24:00;100630;;;17.9;66.1
69405;BME280;57084;52.046;5.632;2022-09-09T03:25:00;100630;;;17.9;66.1
69405;BME280;57084;52.046;5.632;2022-09-09T03:26:00;100630;;;17.9;66.2
69405;BME280;57084;52.046;5.632;2022-09-09T03:27:00;100630;;;17.9;66.2
69405;BME280;57084;52.046;5.632;2022-09-09T03:28:00;100630;;;17.9;66.1
69405;BME280;57084;52.046;5.632;2022-09-09T03:29:00;100630;;;17.9;66.1
69405;BME280;57084;52.046;5.632;2022-09-09T03:30:00;100630;;;17.8;66.2
69405;BME280;57084;52.046;5.632;2022-09-09T03:31:00;100630;;;17.8;66.2
69405;BME280;57084;52.046;5.632;2022-09-09T03:32:00;100620;;;17.8;66.2
69405;BME280;57084;52.046;5.632;2022-09-09T03:33:00;100620;;;17.8;66.2
69405;BME280;57084;52.046;5.632;2022-09-09T03:34:00;100620;;;17.8;66.2
69405;BME280;57084;52.046;5.632;2022-09-09T03:35:00;100620;;;17.8;66.2
69405;BME280;57084;52.046;5.632;2022-09-09T03:36:00;100620;;;17.8;66.2
69405;BME280;57084;52.046;5.632;2022-09-09T03:37:00;100620;;;17.8;66.2
69405;BME280;57084;52.046;5.632;2022-09-09T03:38:00;100620;;;17.8;66.2
69405;BME280;57084;52.046;5.632;2022-09-09T03:39:00;100620;;;17.8;66.2
69405;BME280;57084;52.046;5.632;2022-09-09T03:40:00;100620;;;17.8;66.3
69405;BME280;57084;52.046;5.632;2022-09-09T03:41:00;100620;;;17.8;66.3
69405;BME280;57084;52.046;5.632;2022-09-09T03:42:00;100620;;;17.8;66.2
69405;BME280;57084;52.046;5.632;2022-09-09T03:43:00;100620;;;17.8;66.2
69405;BME280;57084;52.046;5.632;2022-09-09T03:44:00;100620;;;17.8;66.2
69405;BME280;57084;52.046;5.632;2022-09-09T03:45:00;100620;;;17.8;66.2
69405;BME280;57084;52.046;5.632;2022-09-09T03:46:00;100620;;;17.7;66.3
69405;BME280;57084;52.046;5.632;2022-09-09T03:47:00;100620;;;17.7;66.3
69405;BME280;57084;52.046;5.632;2022-09-09T03:48:00;100620;;;17.7;66.2
69405;BME280;57084;52.046;5.632;2022-09-09T03:49:00;100620;;;17.7;66.2
69405;BME280;57084;52.046;5.632;2022-09-09T03:50:00;100620;;;17.7;66.4
69405;BME280;57084;52.046;5.632;2022-09-09T03:51:00;100620;;;17.7;66.4
69405;BME280;57084;52.046;5.632;2022-09-09T03:52:00;100630;;;17.7;66.3
69405;BME280;57084;52.046;5.632;2022-09-09T03:53:00;100630;;;17.7;66.3
69405;BME280;57084;52.046;5.632;2022-09-09T03:54:00;100630;;;17.7;66.2
69405;BME280;57084;52.046;5.632;2022-09-09T03:55:00;100630;;;17.7;66.2
69405;BME280;57084;52.046;5.632;2022-09-09T03:56:00;100630;;;17.7;66.4
69405;BME280;57084;52.046;5.632;2022-09-09T03:57:00;100630;;;17.7;66.4
69405;BME280;57084;52.046;5.632;2022-09-09T03:58:00;100630;;;17.7;66.3
69405;BME280;57084;52.046;5.632;2022-09-09T03:59:00;100630;;;17.7;66.3
69405;BME280;57084;52.046;5.632;2022-09-09T04:00:00;100630;;;17.7;66.5
69405;BME280;57084;52.046;5.632;2022-09-09T04:01:00;100630;;;17.7;66.5
69405;BME280;57084;52.046;5.632;2022-09-09T04:02:00;100630;;;17.7;66.4
69405;BME280;57084;52.046;5.632;2022-09-09T04:03:00;100630;;;17.7;66.4
69405;BME280;57084;52.046;5.632;2022-09-09T04:04:00;100620;;;17.7;66.3
69405;BME280;57084;52.046;5.632;2022-09-09T04:05:00;100620;;;17.7;66.3
69405;BME280;57084;52.046;5.632;2022-09-09T04:06:00;100620;;;17.7;66.5
69405;BME280;57084;52.046;5.632;2022-09-09T04:07:00;100620;;;17.7;66.5
69405;BME280;57084;52.046;5.632;2022-09-09T04:08:00;100620;;;17.7;66.4
69405;BME280;57084;52.046;5.632;2022-09-09T04:09:00;100620;;;17.7;66.4
69405;BME280;57084;52.046;5.632;2022-09-09T04:10:00;100620;;;17.7;66.6
69405;BME280;57084;52.046;5.632;2022-09-09T04:11:00;100620;;;17.7;66.6
69405;BME280;57084;52.046;5.632;2022-09-09T04:12:00;100610;;;17.7;66.5
69405;BME280;57084;52.046;5.632;2022-09-09T04:13:00;100610;;;17.7;66.5
69405;BME280;57084;52.046;5.632;2022-09-09T04:14:00;100610;;;17.7;66.4
69405;BME280;57084;52.046;5.632;2022-09-09T04:15:00;100610;;;17.7;66.4
69405;BME280;57084;52.046;5.632;2022-09-09T04:16:00;100610;;;17.6;66.6
69405;BME280;57084;52.046;5.632;2022-09-09T04:17:00;100610;;;17.6;66.6
69405;BME280;57084;52.046;5.632;2022-09-09T04:18:00;100610;;;17.6;66.5
69405;BME280;57084;52.046;5.632;2022-09-09T04:19:00;100610;;;17.6;66.5
69405;BME280;57084;52.046;5.632;2022-09-09T04:20:00;100610;;;17.6;66.7
69405;BME280;57084;52.046;5.632;2022-09-09T04:21:00;100610;;;17.6;66.7
69405;BME280;57084;52.046;5.632;2022-09-09T04:22:00;100610;;;17.6;66.6
69405;BME280;57084;52.046;5.632;2022-09-09T04:23:00;100610;;;17.6;66.6
69405;BME280;57084;52.046;5.632;2022-09-09T04:24:00;100610;;;17.6;66.5
69405;BME280;57084;52.046;5.632;2022-09-09T04:25:00;100610;;;17.6;66.5
69405;BME280;57084;52.046;5.632;2022-09-09T04:26:00;100600;;;17.6;66.6
69405;BME280;57084;52.046;5.632;2022-09-09T04:27:00;100600;;;17.6;66.6
69405;BME280;57084;52.046;5.632;2022-09-09T04:28:00;100610;;;17.6;66.5
69405;BME280;57084;52.046;5.632;2022-09-09T04:29:00;100610;;;17.6;66.5
69405;BME280;57084;52.046;5.632;2022-09-09T04:30:00;100600;;;17.6;66.7
69405;BME280;57084;52.046;5.632;2022-09-09T04:31:03;100600;;;17.6;66.7
69405;BME280;57084;52.046;5.632;2022-09-09T04:32:00;100600;;;17.6;66.6
69405;BME280;57084;52.046;5.632;2022-09-09T04:33:00;100600;;;17.6;66.6
69405;BME280;57084;52.046;5.632;2022-09-09T04:34:00;100600;;;17.6;66.6
69405;BME280;57084;52.046;5.632;2022-09-09T04:35:00;100600;;;17.6;66.6
69405;BME280;57084;52.046;5.632;2022-09-09T04:36:00;100600;;;17.6;66.7
69405;BME280;57084;52.046;5.632;2022-09-09T04:37:00;100600;;;17.6;66.7
69405;BME280;57084;52.046;5.632;2022-09-09T04:38:00;100600;;;17.6;66.6
69405;BME280;57084;52.046;5.632;2022-09-09T04:39:00;100600;;;17.6;66.6
69405;BME280;57084;52.046;5.632;2022-09-09T04:40:00;100610;;;17.6;66.8
69405;BME280;57084;52.046;5.632;2022-09-09T04:41:00;100610;;;17.6;66.8
69405;BME280;57084;52.046;5.632;2022-09-09T04:42:00;100610;;;17.6;66.8
69405;BME280;57084;52.046;5.632;2022-09-09T04:43:00;100610;;;17.6;66.8
69405;BME280;57084;52.046;5.632;2022-09-09T04:44:00;100610;;;17.6;66.7
69405;BME280;57084;52.046;5.632;2022-09-09T04:45:00;100610;;;17.6;66.7
69405;BME280;57084;52.046;5.632;2022-09-09T04:46:00;100610;;;17.5;66.9
69405;BME280;57084;52.046;5.632;2022-09-09T04:47:00;100610;;;17.5;66.9
69405;BME280;57084;52.046;5.632;2022-09-09T04:48:00;100600;;;17.6;66.8
69405;BME280;57084;52.046;5.632;2022-09-09T04:49:00;100600;;;17.6;66.8
69405;BME280;57084;52.046;5.632;2022-09-09T04:50:00;100600;;;17.5;66.9
69405;BME280;57084;52.046;5.632;2022-09-09T04:51:00;100600;;;17.5;66.9
69405;BME280;57084;52.046;5.632;2022-09-09T04:52:00;100600;;;17.5;66.9
69405;BME280;57084;52.046;5.632;2022-09-09T04:53:00;100600;;;17.5;66.9
69405;BME280;57084;52.046;5.632;2022-09-09T04:54:00;100600;;;17.5;66.8
69405;BME280;57084;52.046;5.632;2022-09-09T04:55:00;100600;;;17.5;66.8
69405;BME280;57084;52.046;5.632;2022-09-09T04:56:01;100600;;;17.5;66.9
69405;BME280;57084;52.046;5.632;2022-09-09T04:57:00;100600;;;17.5;66.9
69405;BME280;57084;52.046;5.632;2022-09-09T04:58:02;100600;;;17.5;66.9
69405;BME280;57084;52.046;5.632;2022-09-09T04:59:00;100600;;;17.5;66.9
69405;BME280;57084;52.046;5.632;2022-09-09T05:00:00;100590;;;17.5;67.0
69405;BME280;57084;52.046;5.632;2022-09-09T05:01:04;100590;;;17.5;67.0
69405;BME280;57084;52.046;5.632;2022-09-09T05:02:00;100590;;;17.5;67.0
69405;BME280;57084;52.046;5.632;2022-09-09T05:03:01;100590;;;17.5;67.0
69405;BME280;57084;52.046;5.632;2022-09-09T05:04:00;100590;;;17.5;66.9
69405;BME280;57084;52.046;5.632;2022-09-09T05:05:00;100590;;;17.5;66.9
69405;BME280;57084;52.046;5.632;2022-09-09T05:06:04;100590;;;17.5;67.1
69405;BME280;57084;52.046;5.632;2022-09-09T05:07:00;100590;;;17.5;67.1
69405;BME280;57084;52.046;5.632;2022-09-09T05:08:00;100600;;;17.5;67.0
69405;BME280;57084;52.046;5.632;2022-09-09T05:09:00;100600;;;17.5;67.0
69405;BME280;57084;52.046;5.632;2022-09-09T05:10:00;100600;;;17.5;67.2
69405;BME280;57084;52.046;5.632;2022-09-09T05:11:00;100600;;;17.5;67.2
69405;BME280;57084;52.046;5.632;2022-09-09T05:12:00;100590;;;17.5;67.1
69405;BME280;57084;52.046;5.632;2022-09-09T05:13:00;100590;;;17.5;67.1
69405;BME280;57084;52.046;5.632;2022-09-09T05:14:00;100600;;;17.5;67.0
69405;BME280;57084;52.046;5.632;2022-09-09T05:15:00;100600;;;17.5;67.0
69405;BME280;57084;52.046;5.632;2022-09-09T05:16:00;100590;;;17.5;67.2
69405;BME280;57084;52.046;5.632;2022-09-09T05:17:00;100590;;;17.5;67.2
69405;BME280;57084;52.046;5.632;2022-09-09T05:18:00;100600;;;17.5;67.1
69405;BME280;57084;52.046;5.632;2022-09-09T05:19:00;100600;;;17.5;67.1
69405;BME280;57084;52.046;5.632;2022-09-09T05:20:00;100600;;;17.5;67.2
69405;BME280;57084;52.046;5.632;2022-09-09T05:21:00;100600;;;17.5;67.2
69405;BME280;57084;52.046;5.632;2022-09-09T05:22:00;100590;;;17.5;67.2
69405;BME280;57084;52.046;5.632;2022-09-09T05:23:00;100590;;;17.5;67.2
69405;BME280;57084;52.046;5.632;2022-09-09T05:24:00;100590;;;17.5;67.1
69405;BME280;57084;52.046;5.632;2022-09-09T05:25:00;100590;;;17.5;67.1
69405;BME280;57084;52.046;5.632;2022-09-09T05:26:00;100590;;;17.5;67.3
69405;BME280;57084;52.046;5.632;2022-09-09T05:27:00;100590;;;17.5;67.3
69405;BME280;57084;52.046;5.632;2022-09-09T05:28:00;100590;;;17.5;67.2
69405;BME280;57084;52.046;5.632;2022-09-09T05:29:00;100590;;;17.5;67.2
69405;BME280;57084;52.046;5.632;2022-09-09T05:30:00;100590;;;17.5;67.3
69405;BME280;57084;52.046;5.632;2022-09-09T05:31:00;100590;;;17.5;67.3
69405;BME280;57084;52.046;5.632;2022-09-09T05:32:00;100590;;;17.5;67.3
69405;BME280;57084;52.046;5.632;2022-09-09T05:33:00;100590;;;17.5;67.3
69405;BME280;57084;52.046;5.632;2022-09-09T05:34:00;100580;;;17.5;67.2
69405;BME280;57084;52.046;5.632;2022-09-09T05:35:00;100580;;;17.5;67.2
69405;BME280;57084;52.046;5.632;2022-09-09T05:36:00;100580;;;17.5;67.4
69405;BME280;57084;52.046;5.632;2022-09-09T05:37:00;100580;;;17.5;67.4
69405;BME280;57084;52.046;5.632;2022-09-09T05:38:00;100580;;;17.5;67.3